createdAt,value
2023-03-05T00:02:19.012Z,82.51
2023-03-05T00:07:44.122Z,82.33
2023-03-05T00:13:08.923Z,81.46
2023-03-05T00:18:33.134Z,80.34
2023-03-05T00:23:58.327Z,80.22
2023-03-05T00:29:22.213Z,80.10
2023-03-05T00:34:46.425Z,79.72
2023-03-05T00:40:13.018Z,79.51
2023-03-05T00:45:37.532Z,79.97
2023-03-05T00:51:01.610Z,80.53
2023-03-05T00:56:25.415Z,80.45
2023-03-05T01:01:50.235Z,80.09
2023-03-05T01:07:14.195Z,80.42
2023-03-05T01:12:38.793Z,80.59
2023-03-05T01:18:03.390Z,80.17
2023-03-05T01:23:27.223Z,80.52
2023-03-05T01:28:51.433Z,79.87
2023-03-05T01:34:15.540Z,79.93
2023-03-05T01:39:39.166Z,79.89
2023-03-05T01:45:17.663Z,79.97
2023-03-05T01:50:42.301Z,78.97
2023-03-05T01:56:07.558Z,78.82
2023-03-05T02:01:41.237Z,78.71
2023-03-05T02:07:05.941Z,78.93
2023-03-05T02:12:30.064Z,78.95
2023-03-05T02:17:54.615Z,79.51
2023-03-05T02:23:21.242Z,79.63
2023-03-05T02:28:57.421Z,79.82
2023-03-05T02:34:22.444Z,79.83
2023-03-05T02:39:46.943Z,79.83
2023-03-05T02:45:12.524Z,79.70
2023-03-05T02:50:37.591Z,79.90
2023-03-05T02:56:02.227Z,80.00
2023-03-05T03:01:30.024Z,80.37
2023-03-05T03:06:54.821Z,80.68
2023-03-05T03:12:19.122Z,81.50
2023-03-05T03:17:43.514Z,82.21
2023-03-05T03:23:08.876Z,82.79
2023-03-05T03:28:33.391Z,82.96
2023-03-05T03:33:57.931Z,83.44
2023-03-05T03:39:22.638Z,83.35
2023-03-05T03:44:47.050Z,83.67
2023-03-05T03:50:11.740Z,83.93
2023-03-05T03:55:36.514Z,84.06
2023-03-05T04:01:01.103Z,84.20
2023-03-05T04:06:25.336Z,84.44
2023-03-05T04:11:49.640Z,84.27
2023-03-05T04:17:14.833Z,84.13
2023-03-05T04:22:38.947Z,83.93
2023-03-05T04:28:03.345Z,83.90
2023-03-05T04:33:27.640Z,83.61
2023-03-05T04:38:51.868Z,83.76
2023-03-05T04:44:15.734Z,84.40
2023-03-05T04:49:39.687Z,85.03
2023-03-05T04:55:04.102Z,85.37
2023-03-05T05:00:28.634Z,85.33
2023-03-05T05:05:57.359Z,85.12
2023-03-05T05:11:21.661Z,85.55
2023-03-05T05:16:46.217Z,85.33
2023-03-05T05:22:10.218Z,84.54
2023-03-05T05:27:34.167Z,83.83
2023-03-05T05:32:58.899Z,83.18
2023-03-05T05:38:23.801Z,82.55
2023-03-05T05:43:48.941Z,81.58
2023-03-05T05:49:13.370Z,79.99
2023-03-05T05:54:37.462Z,79.83
2023-03-05T06:00:02.085Z,78.34
2023-03-05T06:05:36.147Z,77.31
2023-03-05T06:11:00.689Z,76.76
2023-03-05T06:16:25.284Z,76.80
2023-03-05T06:21:49.980Z,76.11
2023-03-05T06:27:13.745Z,76.80
2023-03-05T06:32:37.803Z,77.55
2023-03-05T06:38:02.964Z,78.01
2023-03-05T06:43:27.748Z,78.80
2023-03-05T06:48:53.302Z,79.47
2023-03-05T06:54:19.115Z,80.24
2023-03-05T06:59:44.764Z,80.39
2023-03-05T07:05:10.340Z,80.97
2023-03-05T07:10:44.335Z,81.26
2023-03-05T07:16:11.287Z,81.47
2023-03-05T07:21:39.463Z,81.18
2023-03-05T07:27:05.759Z,80.85
2023-03-05T07:32:30.981Z,80.37
2023-03-05T07:37:56.975Z,79.60
2023-03-05T07:43:22.339Z,78.93
2023-03-05T07:48:48.616Z,77.95
2023-03-05T07:54:13.271Z,77.13
2023-03-05T07:59:38.932Z,75.87
2023-03-05T08:05:03.388Z,75.19
2023-03-05T08:10:28.020Z,74.17
2023-03-05T08:15:53.083Z,72.69
2023-03-05T08:21:27.479Z,72.20
2023-03-05T08:26:51.967Z,70.68
2023-03-05T08:32:16.251Z,70.45
2023-03-05T08:37:40.040Z,70.57
2023-03-05T08:43:06.130Z,70.40
2023-03-05T08:48:32.154Z,70.77
2023-03-05T08:54:00.162Z,71.09
2023-03-05T08:59:25.060Z,71.04
2023-03-05T09:04:49.173Z,72.16
2023-03-05T09:10:15.065Z,73.09
2023-03-05T09:15:39.546Z,72.92
2023-03-05T09:21:09.373Z,73.10
2023-03-05T09:26:34.560Z,72.16
2023-03-05T09:31:59.178Z,72.21
2023-03-05T09:37:23.580Z,71.75
2023-03-05T09:43:03.971Z,71.85
2023-03-05T09:48:49.066Z,71.50
2023-03-05T09:54:36.559Z,71.23
2023-03-05T10:00:09.204Z,71.45
2023-03-05T10:05:49.487Z,71.18
2023-03-05T10:11:48.722Z,71.06
2023-03-05T10:17:38.392Z,72.82
2023-03-05T10:23:08.241Z,69.91
2023-03-05T10:28:54.406Z,68.31
2023-03-05T10:34:49.540Z,68.91
2023-03-05T10:40:28.341Z,67.76
2023-03-05T10:45:58.806Z,67.62
2023-03-05T10:51:38.694Z,67.74
2023-03-05T10:57:18.504Z,67.04
2023-03-05T11:03:05.508Z,66.20
2023-03-05T11:08:32.074Z,66.13
2023-03-05T11:14:00.003Z,65.78
2023-03-05T11:19:23.889Z,65.46
2023-03-05T11:25:22.408Z,65.40
2023-03-05T11:31:04.488Z,64.96
2023-03-05T11:36:33.810Z,65.28
2023-03-05T11:42:25.407Z,65.56
2023-03-05T11:47:52.986Z,65.13
2023-03-05T11:53:40.975Z,64.33
2023-03-05T11:59:14.265Z,64.33
2023-03-05T12:04:38.758Z,63.84
2023-03-05T12:10:06.157Z,63.35
2023-03-05T12:15:52.461Z,62.59
2023-03-05T12:21:38.125Z,62.24
2023-03-05T12:27:03.087Z,59.65
2023-03-05T12:32:35.781Z,59.41
2023-03-05T12:38:06.160Z,60.84
2023-03-05T12:43:36.708Z,60.84
2023-03-05T12:49:23.436Z,61.99
2023-03-05T12:55:01.744Z,62.88
2023-03-05T13:00:34.094Z,64.36
2023-03-05T13:06:01.375Z,65.81
2023-03-05T13:11:25.938Z,67.44
2023-03-05T13:16:51.313Z,68.39
2023-03-05T13:22:16.425Z,68.91
2023-03-05T13:27:42.026Z,69.17
2023-03-05T13:33:09.835Z,69.47
2023-03-05T13:38:40.495Z,69.94
2023-03-05T13:44:05.651Z,70.87
2023-03-05T13:49:30.969Z,71.41
2023-03-05T13:54:58.596Z,71.22
2023-03-05T14:00:39.347Z,71.10
2023-03-05T14:06:10.275Z,69.47
2023-03-05T14:11:36.122Z,68.92
2023-03-05T14:17:23.667Z,68.99
2023-03-05T14:22:49.966Z,68.84
2023-03-05T14:28:17.413Z,68.81
2023-03-05T14:33:41.491Z,69.05
2023-03-05T14:39:05.934Z,69.66
2023-03-05T14:44:30.135Z,71.51
2023-03-05T14:49:55.270Z,70.97
2023-03-05T14:55:23.637Z,70.09
2023-03-05T15:00:51.235Z,69.40
2023-03-05T15:06:31.126Z,70.01
2023-03-05T15:11:55.741Z,70.36
2023-03-05T15:17:35.662Z,70.66
2023-03-05T15:23:01.217Z,70.11
2023-03-05T15:28:27.965Z,70.47
2023-03-05T15:33:54.355Z,70.12
2023-03-05T15:39:19.474Z,70.91
2023-03-05T15:44:44.443Z,72.97
2023-03-05T15:50:10.100Z,74.07
2023-03-05T15:55:41.409Z,75.25
2023-03-05T16:01:07.666Z,75.30
2023-03-05T16:06:35.997Z,76.20
2023-03-05T16:12:02.695Z,77.09
2023-03-05T16:17:28.391Z,77.12
2023-03-05T16:22:56.451Z,77.73
2023-03-05T16:28:21.803Z,77.78
2023-03-05T16:33:47.233Z,77.72
2023-03-05T16:39:13.941Z,78.37
2023-03-05T16:44:38.932Z,77.46
2023-03-05T16:50:07.283Z,77.51
2023-03-05T16:55:33.956Z,78.59
2023-03-05T17:01:01.789Z,79.33
2023-03-05T17:06:30.740Z,80.04
2023-03-05T17:11:57.829Z,80.39
2023-03-05T17:17:26.321Z,80.59
2023-03-05T17:22:53.456Z,80.25
2023-03-05T17:28:18.631Z,80.40
2023-03-05T17:33:44.023Z,80.21
2023-03-05T17:39:10.668Z,80.48
2023-03-05T17:44:35.749Z,80.63
2023-03-05T17:50:00.489Z,81.24
2023-03-05T17:55:26.126Z,82.04
2023-03-05T18:00:50.066Z,82.71
2023-03-05T18:06:14.307Z,83.64
2023-03-05T18:11:38.801Z,84.14
2023-03-05T18:17:03.551Z,84.15
2023-03-05T18:22:28.247Z,84.28
2023-03-05T18:27:53.852Z,84.76
2023-03-05T18:33:20.670Z,84.63
2023-03-05T18:38:45.390Z,84.97
2023-03-05T18:44:10.691Z,85.32
2023-03-05T18:49:36.214Z,85.53
2023-03-05T18:55:00.635Z,85.84
2023-03-05T19:00:28.629Z,86.35
2023-03-05T19:05:53.702Z,86.33
2023-03-05T19:11:21.803Z,86.37
2023-03-05T19:16:48.293Z,86.37
2023-03-05T19:22:14.382Z,86.51
2023-03-05T19:27:39.336Z,86.41
2023-03-05T19:33:07.090Z,86.28
2023-03-05T19:38:34.761Z,86.88
2023-03-05T19:44:05.360Z,87.01
2023-03-05T19:49:33.063Z,87.08
2023-03-05T19:55:01.293Z,87.41
2023-03-05T20:00:28.272Z,87.45
2023-03-05T20:05:56.663Z,87.48
2023-03-05T20:11:24.017Z,87.48
2023-03-05T20:16:52.743Z,87.48
2023-03-05T20:22:23.589Z,87.54
2023-03-05T20:27:55.294Z,87.97
2023-03-05T20:33:19.551Z,88.33
2023-03-05T20:38:45.667Z,88.44
2023-03-05T20:44:11.690Z,88.23
2023-03-05T20:49:37.330Z,88.14
2023-03-05T20:55:02.454Z,87.92
2023-03-05T21:00:27.510Z,87.78
2023-03-05T21:05:51.912Z,87.84
2023-03-05T21:11:15.933Z,88.01
2023-03-05T21:16:42.048Z,88.08
2023-03-05T21:22:15.613Z,88.13
2023-03-05T21:27:40.617Z,88.23
2023-03-05T21:33:09.213Z,88.36
2023-03-05T21:38:34.338Z,88.21
2023-03-05T21:44:04.227Z,88.45
2023-03-05T21:49:28.427Z,88.18
2023-03-05T21:54:54.593Z,88.57
2023-03-05T22:00:23.136Z,88.51
2023-03-05T22:05:47.612Z,88.29
2023-03-05T22:11:14.250Z,88.55
2023-03-05T22:16:38.130Z,88.84
2023-03-05T22:22:02.475Z,89.13
2023-03-05T22:27:26.700Z,89.37
2023-03-05T22:32:51.311Z,89.90
2023-03-05T22:38:16.199Z,90.02
2023-03-05T22:43:40.230Z,90.14
2023-03-05T22:49:03.945Z,90.46
2023-03-05T22:54:28.291Z,90.46
2023-03-05T22:59:51.910Z,90.62
2023-03-05T23:05:17.640Z,90.51
2023-03-05T23:10:42.209Z,90.20
2023-03-05T23:16:06.390Z,90.19
2023-03-05T23:21:30.884Z,90.29
2023-03-05T23:26:55.071Z,90.25
2023-03-05T23:32:19.021Z,90.30
2023-03-05T23:37:44.179Z,90.30
2023-03-05T23:43:08.742Z,90.21
2023-03-05T23:48:32.894Z,90.58
2023-03-05T23:53:56.949Z,90.80
2023-03-05T23:59:21.153Z,90.96
